KCCA

Clinton Municipal Airport

Clinton, Arkansas, USA
METAR KCCA 201915Z AUTO VRB05G11KT 10SM CLR 21/04 A3019 RMK AO2
Observed Flight Rules
Oct-20 @ 19:15 UTC (20 minutes ago) Visual Flight Rules
Wind Visibility Clouds
Variable at 5 knots
 Gusting to 11 knots
10 miles
  • Clear skies
Temperatures Readings
Current 21°C / 70°F
Dewpoint 4°C / 39°F
Humidity 33%
Altimeter 30.19" Hg
Pressure 1022 hPa
Elevation 157
METAR KCCA 201915Z AUTO VRB05G11KT 10SM CLR 21/04 A3019 RMK AO2
Observed Flight Rules
Oct-20 @ 19:15 UTC
(20 minutes ago)
VFR
Wind Visibility
Variable at 5 knots
 Gusting to 11 knots
10 miles
Clouds
  • Clear skies
Temperature Dewpoint
21°C / 70°F 4°C / 39°F
Humidity Altimeter Pressure
33% 30.19" Hg 1022 hPa